Time;durP1;ratioP1;P1;durP2;ratioP2;P2;SDS_P1;SDS_P2;PMS_P1;PMS_P2;Temp;Humidity;BMP_temperature;BMP_pressure;BME280_temperature;BME280_humidity;BME280_pressure;Samples;Min_cycle;Max_cycle;Signal;HPM_P1;HPM_P2
2022/06/25 00:01:42;;;;;;;9.13;1.17;;;13.40;99.90;;;;;;4971277;28;20176;-64
2022/06/25 00:05:27;;;;;;;6.57;1.10;;;13.20;99.90;;;;;;4971834;28;20202;-64
2022/06/25 00:06:53;;;;;;;5.23;1.30;;;13.30;99.90;;;;;;4971820;28;20608;-64
2022/06/25 00:09:18;;;;;;;5.63;1.33;;;13.30;99.90;;;;;;4972009;28;20230;-63
2022/06/25 00:14:29;;;;;;;8.57;1.07;;;13.20;99.90;;;;;;4971769;28;20206;-65
2022/06/25 00:16:54;;;;;;;5.60;0.80;;;13.20;99.90;;;;;;4971882;28;20274;-64
2022/06/25 00:19:20;;;;;;;8.37;1.10;;;13.20;99.90;;;;;;4971818;28;20307;-64
2022/06/25 00:21:46;;;;;;;9.27;1.23;;;13.00;99.90;;;;;;4971905;28;20174;-64
2022/06/25 00:24:11;;;;;;;5.47;1.40;;;13.10;99.90;;;;;;4971479;28;20654;-64
2022/06/25 00:26:37;;;;;;;9.07;1.10;;;;;;;;;;4971814;28;20742;-64
2022/06/25 00:29:03;;;;;;;3.53;0.87;;;13.10;99.90;;;;;;4971509;28;20184;-63
2022/06/25 00:31:29;;;;;;;6.33;0.90;;;13.00;99.90;;;;;;4971828;28;20251;-64
2022/06/25 00:33:55;;;;;;;9.20;1.00;;;13.00;99.90;;;;;;4971327;28;20172;-63
2022/06/25 00:36:20;;;;;;;7.20;1.50;;;13.10;99.90;;;;;;4971721;28;20175;-63
2022/06/25 00:38:46;;;;;;;8.53;1.30;;;13.00;99.90;;;;;;4971735;28;20278;-64
2022/06/25 00:41:12;;;;;;;10.23;1.20;;;13.00;99.90;;;;;;4971513;28;20180;-63
2022/06/25 00:43:39;;;;;;;10.67;1.10;;;13.10;99.90;;;;;;4971472;28;20172;-64
2022/06/25 00:46:05;;;;;;;5.83;1.03;;;13.00;99.90;;;;;;4971162;28;20636;-63
2022/06/25 00:48:31;;;;;;;8.37;1.43;;;13.00;99.90;;;;;;4974980;28;20209;-66
2022/06/25 00:51:01;;;;;;;6.03;1.00;;;13.00;99.90;;;;;;4974845;28;20183;-63
2022/06/25 00:53:32;;;;;;;9.30;1.23;;;12.90;99.90;;;;;;4974799;28;20176;-63
2022/06/25 00:55:59;;;;;;;14.40;1.63;;;12.90;99.90;;;;;;4975325;28;20184;-63
2022/06/25 00:58:30;;;;;;;14.50;1.43;;;12.90;99.90;;;;;;4974640;28;20219;-63
2022/06/25 01:00:57;;;;;;;7.50;1.47;;;12.90;99.90;;;;;;4974029;28;20259;-63
2022/06/25 01:03:24;;;;;;;7.93;1.10;;;12.80;99.90;;;;;;4973799;28;20176;-62
2022/06/25 01:05:51;;;;;;;6.40;0.90;;;;;;;;;;4974799;28;20224;-63
2022/06/25 01:08:18;;;;;;;11.73;1.43;;;12.80;99.90;;;;;;4975374;28;20525;-63
2022/06/25 01:10:44;;;;;;;8.77;1.13;;;12.80;99.90;;;;;;4975205;28;20172;-63
2022/06/25 01:13:09;;;;;;;13.60;1.20;;;12.70;99.90;;;;;;4974618;28;20183;-63
2022/06/25 01:15:35;;;;;;;5.40;1.00;;;12.70;99.90;;;;;;4974860;28;20172;-64
2022/06/25 01:18:01;;;;;;;8.67;1.30;;;12.70;99.90;;;;;;4974940;28;20220;-64
2022/06/25 01:20:27;;;;;;;11.43;1.47;;;12.70;99.90;;;;;;4974775;28;20230;-64
2022/06/25 01:22:54;;;;;;;9.13;1.50;;;12.60;99.90;;;;;;4974774;28;20274;-64
2022/06/25 01:25:19;;;;;;;9.87;1.10;;;12.60;99.90;;;;;;4974602;28;20176;-63
2022/06/25 01:27:46;;;;;;;8.13;1.20;;;12.60;99.90;;;;;;4974874;28;20187;-64
2022/06/25 01:30:13;;;;;;;10.40;1.50;;;12.70;99.90;;;;;;4974541;28;20215;-64
2022/06/25 01:32:39;;;;;;;7.70;1.03;;;12.60;99.90;;;;;;4974019;28;20255;-64
2022/06/25 01:35:06;;;;;;;8.53;1.20;;;12.60;99.90;;;;;;4974067;28;20176;-64
2022/06/25 01:37:32;;;;;;;7.90;1.87;;;12.50;99.90;;;;;;4974465;28;20223;-65
2022/06/25 01:39:58;;;;;;;7.13;1.23;;;12.50;99.90;;;;;;4974040;28;20188;-65
2022/06/25 01:45:12;;;;;;;11.77;1.40;;;12.50;99.90;;;;;;4974519;28;20290;-63
2022/06/25 01:47:38;;;;;;;9.37;1.00;;;12.50;99.90;;;;;;4974391;28;20187;-64
2022/06/25 01:50:06;;;;;;;4.80;1.10;;;12.50;99.90;;;;;;4973910;28;20176;-64
2022/06/25 01:52:32;;;;;;;6.87;1.40;;;12.50;99.90;;;;;;4974372;28;20602;-64
2022/06/25 01:54:58;;;;;;;9.27;1.37;;;12.50;99.90;;;;;;4973858;28;20175;-65
2022/06/25 01:57:24;;;;;;;5.67;1.50;;;12.50;99.90;;;;;;4973403;28;20257;-64
2022/06/25 01:59:51;;;;;;;8.67;1.23;;;13.20;99.90;;;;;;4972666;28;20184;-65
2022/06/25 02:02:17;;;;;;;8.47;1.17;;;12.60;99.90;;;;;;4973617;28;20651;-64
2022/06/25 02:04:43;;;;;;;15.50;1.53;;;;;;;;;;4972941;28;20647;-64
2022/06/25 02:07:10;;;;;;;5.67;0.87;;;12.40;99.90;;;;;;4973488;28;20234;-63
2022/06/25 02:09:36;;;;;;;5.50;1.33;;;12.40;99.90;;;;;;4973982;28;20176;-64
2022/06/25 02:12:07;;;;;;;6.53;1.40;;;12.40;99.90;;;;;;4973191;28;20263;-64
2022/06/25 02:14:33;;;;;;;6.97;1.43;;;12.40;99.90;;;;;;4973302;28;20180;-64
2022/06/25 02:16:59;;;;;;;7.90;1.43;;;12.30;99.90;;;;;;4973748;28;20199;-64
2022/06/25 02:19:24;;;;;;;7.70;1.60;;;12.30;99.90;;;;;;4973622;28;20678;-65
2022/06/25 02:21:50;;;;;;;8.57;1.10;;;12.30;99.90;;;;;;4973987;28;20201;-63
2022/06/25 02:24:16;;;;;;;6.00;1.33;;;12.30;99.90;;;;;;4973443;28;20187;-64
2022/06/25 02:26:42;;;;;;;6.73;1.77;;;12.30;99.90;;;;;;4973709;28;20180;-63
2022/06/25 02:29:08;;;;;;;10.47;1.63;;;12.40;99.90;;;;;;4973072;28;20670;-64
2022/06/25 02:31:34;;;;;;;11.23;1.77;;;12.40;99.90;;;;;;4973381;28;20207;-63
2022/06/25 02:34:00;;;;;;;11.80;1.70;;;;;;;;;;4973247;28;20176;-64
2022/06/25 02:36:25;;;;;;;11.40;1.30;;;12.30;99.90;;;;;;4973508;28;20246;-65
2022/06/25 02:38:51;;;;;;;10.93;1.50;;;12.20;99.90;;;;;;4973169;28;20239;-64
2022/06/25 02:41:17;;;;;;;4.43;1.10;;;12.30;99.90;;;;;;4973480;28;20176;-64
2022/06/25 02:43:43;;;;;;;14.23;1.50;;;12.30;99.90;;;;;;4972910;28;20675;-64
2022/06/25 02:46:08;;;;;;;7.93;1.33;;;12.30;99.90;;;;;;4973525;28;20709;-63
2022/06/25 02:48:34;;;;;;;14.63;1.73;;;;;;;;;;4972770;28;20701;-64
2022/06/25 02:51:00;;;;;;;8.63;1.30;;;12.60;99.90;;;;;;4955894;28;20255;-64
2022/06/25 02:53:26;;;;;;;10.43;1.70;;;12.30;99.90;;;;;;4972936;28;20638;-63
2022/06/25 02:58:55;;;;;;;13.23;1.67;;;12.30;99.90;;;;;;4972630;28;20227;-64
2022/06/25 03:01:25;;;;;;;12.50;1.47;;;12.30;99.90;;;;;;4972604;28;20203;-64
2022/06/25 03:03:51;;;;;;;14.47;1.97;;;12.30;99.90;;;;;;4971801;28;20183;-63
2022/06/25 03:06:17;;;;;;;9.17;1.50;;;12.40;99.90;;;;;;4972799;28;20218;-63
2022/06/25 03:08:42;;;;;;;15.17;2.07;;;12.40;99.90;;;;;;4972482;28;20180;-63
2022/06/25 03:11:08;;;;;;;16.97;1.83;;;12.40;99.90;;;;;;4972111;28;20169;-64
2022/06/25 03:13:36;;;;;;;13.60;2.27;;;12.30;99.90;;;;;;4972468;28;20180;-63
2022/06/25 03:16:02;;;;;;;11.10;1.63;;;12.30;99.90;;;;;;4972973;28;20206;-63
2022/06/25 03:18:28;;;;;;;14.23;2.13;;;12.00;99.90;;;;;;4972441;28;20678;-64
2022/06/25 03:20:54;;;;;;;12.40;1.83;;;12.30;99.90;;;;;;4972096;28;20186;-63
2022/06/25 03:23:20;;;;;;;10.90;2.17;;;12.30;99.90;;;;;;4971702;28;20551;-63
2022/06/25 03:25:46;;;;;;;10.30;1.60;;;12.30;99.90;;;;;;4971891;28;20199;-64
2022/06/25 03:28:12;;;;;;;11.07;1.67;;;12.30;99.90;;;;;;4972409;28;20643;-64
2022/06/25 03:30:38;;;;;;;13.87;2.13;;;12.40;99.90;;;;;;4972116;28;20314;-63
2022/06/25 03:33:03;;;;;;;14.33;1.40;;;12.40;99.90;;;;;;4972510;28;20262;-63
2022/06/25 03:35:30;;;;;;;15.93;1.70;;;13.00;99.90;;;;;;4972093;28;20215;-63
2022/06/25 03:37:56;;;;;;;16.83;1.83;;;;;;;;;;4972343;28;20298;-65
2022/06/25 03:40:22;;;;;;;18.27;2.10;;;12.30;99.90;;;;;;4972101;28;20183;-63
2022/06/25 03:42:49;;;;;;;15.93;2.10;;;12.30;99.90;;;;;;4971665;28;20678;-63
2022/06/25 03:45:15;;;;;;;13.03;2.20;;;;;;;;;;4971644;28;20209;-63
2022/06/25 03:47:41;;;;;;;12.27;2.53;;;12.30;99.90;;;;;;4972052;28;20254;-63
2022/06/25 03:50:07;;;;;;;13.30;1.73;;;12.30;99.90;;;;;;4971879;28;20180;-63
2022/06/25 03:52:34;;;;;;;13.70;1.83;;;;;;;;;;4972243;28;20171;-63
2022/06/25 03:54:59;;;;;;;10.53;1.80;;;12.30;99.90;;;;;;4972042;28;20184;-63
2022/06/25 03:57:25;;;;;;;12.43;1.80;;;12.20;99.90;;;;;;4971603;28;20705;-63
2022/06/25 03:59:51;;;;;;;13.23;1.63;;;12.10;99.90;;;;;;4971347;28;20554;-63
2022/06/25 04:02:17;;;;;;;15.90;2.10;;;12.10;99.90;;;;;;4971296;28;20226;-63
2022/06/25 04:04:43;;;;;;;14.40;1.90;;;12.10;99.90;;;;;;4971143;28;20647;-62
2022/06/25 04:07:09;;;;;;;11.83;1.80;;;12.20;99.90;;;;;;4954399;28;20603;-62
2022/06/25 04:09:35;;;;;;;10.37;1.53;;;12.00;99.90;;;;;;4972165;28;20172;-62
2022/06/25 04:12:00;;;;;;;12.17;1.90;;;12.00;99.90;;;;;;4971912;28;20183;-63
2022/06/25 04:14:26;;;;;;;16.13;1.37;;;12.00;99.90;;;;;;4971516;28;20168;-63
2022/06/25 04:16:54;;;;;;;17.87;2.57;;;12.00;99.90;;;;;;4971571;28;20270;-63
2022/06/25 04:19:19;;;;;;;9.30;1.73;;;12.00;99.90;;;;;;4971452;28;20706;-63
2022/06/25 04:21:47;;;;;;;15.20;1.80;;;12.00;99.90;;;;;;4971948;28;20254;-63
2022/06/25 04:24:15;;;;;;;12.43;1.87;;;12.00;99.90;;;;;;4975221;28;20333;-63
2022/06/25 04:26:41;;;;;;;12.30;1.90;;;12.00;99.90;;;;;;4975689;28;20172;-63
2022/06/25 04:29:08;;;;;;;15.57;2.60;;;;;;;;;;4975186;28;20639;-63
2022/06/25 04:31:36;;;;;;;12.37;2.30;;;12.00;99.90;;;;;;4975583;28;20179;-63
2022/06/25 04:34:03;;;;;;;12.70;1.97;;;12.00;99.90;;;;;;4975429;28;20172;-62
2022/06/25 04:36:29;;;;;;;9.77;2.27;;;12.00;99.90;;;;;;4975581;28;20184;-62
2022/06/25 04:38:55;;;;;;;13.73;1.80;;;12.00;99.90;;;;;;4957919;28;20219;-63
2022/06/25 04:41:21;;;;;;;14.17;1.60;;;12.10;99.90;;;;;;4963379;28;20271;-63
2022/06/25 04:43:47;;;;;;;9.47;1.50;;;12.00;99.90;;;;;;4975447;28;20259;-63
2022/06/25 04:46:13;;;;;;;10.50;2.00;;;12.10;99.90;;;;;;4975332;28;20164;-63
2022/06/25 04:48:39;;;;;;;10.23;1.87;;;12.00;99.90;;;;;;4975014;28;20710;-62
2022/06/25 04:51:05;;;;;;;9.80;1.73;;;12.10;99.90;;;;;;4974996;28;20222;-66
2022/06/25 04:53:31;;;;;;;9.20;1.70;;;12.10;99.90;;;;;;4975016;28;20266;-67
2022/06/25 04:55:57;;;;;;;16.77;2.20;;;12.10;99.90;;;;;;4975198;28;20261;-65
2022/06/25 04:58:23;;;;;;;15.83;1.83;;;12.10;99.90;;;;;;4975211;28;20730;-65
2022/06/25 05:00:49;;;;;;;10.80;2.13;;;12.20;99.90;;;;;;4974956;28;20635;-64
2022/06/25 05:03:15;;;;;;;18.77;2.30;;;12.20;99.90;;;;;;4957120;28;20670;-65
2022/06/25 05:05:40;;;;;;;14.60;1.93;;;12.20;99.90;;;;;;4974906;28;20278;-64
2022/06/25 05:08:06;;;;;;;15.20;2.40;;;12.30;99.90;;;;;;4974763;28;20172;-64
2022/06/25 05:10:32;;;;;;;14.93;2.60;;;12.40;99.90;;;;;;4975348;28;20187;-70
2022/06/25 05:13:13;;;;;;;16.30;2.47;;;12.40;99.90;;;;;;4974632;28;20183;-65
2022/06/25 05:15:39;;;;;;;14.30;1.93;;;12.50;99.90;;;;;;4974822;28;20975;-64
2022/06/25 05:18:10;;;;;;;16.10;1.90;;;12.60;99.90;;;;;;4974597;28;20701;-64
2022/06/25 05:20:43;;;;;;;14.17;2.67;;;12.60;99.90;;;;;;4975024;28;20592;-64
2022/06/25 05:23:09;;;;;;;13.33;1.63;;;12.70;99.90;;;;;;4974455;28;20190;-64
2022/06/25 05:25:35;;;;;;;13.90;2.40;;;12.70;99.90;;;;;;4974748;28;20187;-65
2022/06/25 05:28:02;;;;;;;8.90;1.80;;;12.80;99.90;;;;;;4974609;28;20690;-65
2022/06/25 05:30:28;;;;;;;20.70;2.40;;;12.80;99.90;;;;;;4973949;28;20172;-64
2022/06/25 05:32:54;;;;;;;10.93;2.00;;;12.80;99.90;;;;;;4974170;28;20187;-64
2022/06/25 05:35:19;;;;;;;17.27;2.13;;;12.90;99.90;;;;;;4974683;28;20191;-65
2022/06/25 05:37:45;;;;;;;11.73;2.27;;;12.90;99.90;;;;;;4974124;28;20682;-64
2022/06/25 05:40:11;;;;;;;17.00;2.10;;;13.00;99.90;;;;;;4956685;28;20539;-64
2022/06/25 05:42:37;;;;;;;15.07;1.97;;;13.00;99.90;;;;;;4973511;28;20667;-64
2022/06/25 05:45:04;;;;;;;18.33;2.50;;;13.00;99.90;;;;;;4974372;28;20183;-64
2022/06/25 05:47:29;;;;;;;17.87;2.60;;;14.20;99.90;;;;;;4974296;28;20260;-64
2022/06/25 05:49:55;;;;;;;21.63;2.70;;;13.00;99.90;;;;;;4974350;28;20251;-64
2022/06/25 05:52:22;;;;;;;12.83;2.20;;;13.30;99.90;;;;;;4973254;28;20226;-64
2022/06/25 05:54:48;;;;;;;16.23;1.97;;;13.10;99.90;;;;;;4973832;28;20231;-64
2022/06/25 05:57:14;;;;;;;7.70;1.77;;;13.10;99.90;;;;;;4974245;28;20584;-64
2022/06/25 05:59:40;;;;;;;10.67;2.40;;;13.20;99.90;;;;;;4974004;28;20733;-64
2022/06/25 06:02:06;;;;;;;13.30;2.50;;;13.30;99.90;;;;;;4974138;28;20180;-64
2022/06/25 06:04:32;;;;;;;13.83;2.33;;;13.30;99.90;;;;;;4973665;28;20180;-64
2022/06/25 06:06:59;;;;;;;12.93;2.10;;;13.30;99.90;;;;;;4973945;28;20713;-64
2022/06/25 06:09:27;;;;;;;17.17;2.73;;;13.30;99.90;;;;;;4973772;28;20647;-64
2022/06/25 06:11:54;;;;;;;14.17;2.50;;;13.40;99.90;;;;;;4973744;28;20698;-64
2022/06/25 06:14:20;;;;;;;12.20;2.07;;;13.50;99.90;;;;;;4973511;28;20188;-65
2022/06/25 06:16:46;;;;;;;12.90;2.00;;;13.50;99.90;;;;;;4974728;28;20188;-69
2022/06/25 06:19:12;;;;;;;15.43;2.78;;;13.80;99.90;;;;;;4973638;28;20216;-62
2022/06/25 06:21:37;;;;;;;9.47;2.00;;;14.00;99.90;;;;;;4972884;28;20172;-62
2022/06/25 06:24:03;;;;;;;12.03;2.40;;;14.00;99.90;;;;;;4973837;28;20180;-62
2022/06/25 06:26:29;;;;;;;14.13;2.03;;;14.00;99.90;;;;;;4973692;28;20184;-61
2022/06/25 06:28:54;;;;;;;13.37;2.00;;;14.20;99.90;;;;;;4973625;28;20975;-61
2022/06/25 06:31:20;;;;;;;17.42;2.53;;;14.20;99.90;;;;;;4973525;28;20180;-61
2022/06/25 06:33:46;;;;;;;13.23;3.10;;;14.30;99.90;;;;;;4973150;28;20255;-61
2022/06/25 06:36:12;;;;;;;11.23;2.60;;;14.30;99.90;;;;;;4973525;28;20191;-66
2022/06/25 06:38:38;;;;;;;24.50;3.10;;;14.50;99.90;;;;;;4972901;28;20208;-63
2022/06/25 06:41:04;;;;;;;15.50;2.33;;;14.40;99.90;;;;;;4972325;28;20726;-64
2022/06/25 06:43:30;;;;;;;17.52;2.75;;;14.50;99.90;;;;;;4972791;28;20247;-63
2022/06/25 06:45:55;;;;;;;12.77;2.58;;;14.60;99.90;;;;;;4972507;28;20172;-63
2022/06/25 06:48:21;;;;;;;16.52;2.42;;;14.70;99.90;;;;;;4973104;28;20179;-63
2022/06/25 06:50:47;;;;;;;9.95;2.47;;;14.60;99.90;;;;;;4972583;28;20172;-64
2022/06/25 06:53:13;;;;;;;9.10;2.35;;;14.60;99.90;;;;;;4972970;28;20180;-63
2022/06/25 06:55:38;;;;;;;15.77;2.83;;;14.60;99.90;;;;;;4972846;28;20168;-63
2022/06/25 06:58:04;;;;;;;11.80;2.05;;;14.60;99.90;;;;;;4955372;28;20261;-63
2022/06/25 07:00:29;;;;;;;12.52;3.10;;;14.60;99.90;;;;;;4973038;28;20176;-63
2022/06/25 07:02:55;;;;;;;14.33;2.37;;;14.40;99.90;;;;;;4972457;28;20658;-63
2022/06/25 07:05:21;;;;;;;14.00;3.17;;;14.30;99.90;;;;;;4972097;28;20223;-63
2022/06/25 07:07:47;;;;;;;13.40;2.60;;;14.10;99.90;;;;;;4972656;28;20191;-63
2022/06/25 07:10:14;;;;;;;8.17;2.10;;;13.90;99.90;;;;;;4972864;28;20191;-63
2022/06/25 07:12:39;;;;;;;12.97;2.77;;;13.70;99.90;;;;;;4972577;28;20208;-66
2022/06/25 07:15:06;;;;;;;5.33;2.00;;;13.90;99.90;;;;;;4972556;28;20635;-66
2022/06/25 07:17:31;;;;;;;8.43;2.40;;;13.80;99.90;;;;;;4971650;28;20176;-66
2022/06/25 07:19:58;;;;;;;10.33;2.23;;;13.90;99.90;;;;;;4972441;28;20654;-67
2022/06/25 07:22:24;;;;;;;13.10;2.50;;;14.00;99.90;;;;;;4971806;28;20179;-68
2022/06/25 07:24:51;;;;;;;16.80;2.77;;;14.20;99.90;;;;;;4972462;28;20179;-69
2022/06/25 07:27:17;;;;;;;15.10;2.50;;;14.30;99.90;;;;;;4972379;28;20218;-68
2022/06/25 07:29:43;;;;;;;10.23;2.30;;;14.40;99.90;;;;;;4972688;28;20203;-67
2022/06/25 07:32:10;;;;;;;10.80;2.27;;;14.80;99.90;;;;;;4972340;28;20222;-68
2022/06/25 07:34:36;;;;;;;13.30;2.53;;;16.00;99.90;;;;;;4971963;28;20211;-68
2022/06/25 07:37:02;;;;;;;18.02;2.33;;;15.00;99.90;;;;;;4972344;28;20172;-68
2022/06/25 07:39:28;;;;;;;12.95;2.60;;;15.40;99.90;;;;;;4972232;28;20210;-62
2022/06/25 07:41:53;;;;;;;13.93;2.70;;;15.30;99.90;;;;;;4972346;28;20271;-63
2022/06/25 07:44:19;;;;;;;18.40;2.83;;;15.30;99.90;;;;;;4972462;28;20172;-63
2022/06/25 07:46:45;;;;;;;9.27;2.38;;;15.40;99.90;;;;;;4972090;28;20251;-63
2022/06/25 07:49:11;;;;;;;8.35;2.50;;;15.50;99.90;;;;;;4971544;28;20234;-63
2022/06/25 07:54:21;;;;;;;10.85;2.15;;;15.50;99.90;;;;;;4971798;28;20256;-64
2022/06/25 07:56:46;;;;;;;12.50;2.65;;;15.70;99.90;;;;;;4971267;28;20255;-64
2022/06/25 07:59:13;;;;;;;10.38;2.67;;;16.00;99.90;;;;;;4971537;28;20216;-62
2022/06/25 08:01:38;;;;;;;15.60;2.67;;;16.10;99.90;;;;;;4971823;28;20203;-61
2022/06/25 08:04:04;;;;;;;9.50;3.03;;;16.30;99.90;;;;;;4971748;28;20570;-65
2022/06/25 08:06:31;;;;;;;7.97;1.95;;;16.10;99.90;;;;;;4970202;28;20215;-65
2022/06/25 08:08:57;;;;;;;11.13;2.38;;;15.80;99.90;;;;;;4971097;28;20263;-66
2022/06/25 08:11:23;;;;;;;16.00;2.75;;;16.10;99.90;;;;;;4971281;28;20532;-64
2022/06/25 08:13:48;;;;;;;15.68;2.55;;;16.00;99.90;;;;;;4970934;28;20179;-64
2022/06/25 08:16:14;;;;;;;15.25;2.63;;;16.00;99.90;;;;;;4970493;28;20180;-63
2022/06/25 08:18:40;;;;;;;15.35;3.13;;;15.60;99.90;;;;;;4953113;28;20204;-64
2022/06/25 08:21:06;;;;;;;14.52;3.13;;;15.10;99.90;;;;;;4970853;28;20363;-66
2022/06/25 08:23:32;;;;;;;9.77;2.67;;;15.10;99.90;;;;;;4970637;28;20190;-67
2022/06/25 08:25:58;;;;;;;10.82;2.45;;;;;;;;;;4967359;28;20179;-64
2022/06/25 08:28:24;;;;;;;12.30;2.53;;;15.30;99.90;;;;;;4971274;28;20187;-62
2022/06/25 08:30:50;;;;;;;10.73;2.50;;;15.30;99.90;;;;;;4971846;28;20639;-62
2022/06/25 08:33:16;;;;;;;16.15;2.92;;;15.30;99.90;;;;;;4971253;28;20171;-63
2022/06/25 08:35:42;;;;;;;17.88;2.80;;;14.90;99.90;;;;;;4969270;28;20235;-63
2022/06/25 08:38:08;;;;;;;15.02;2.78;;;14.50;99.90;;;;;;4971403;28;20215;-62
2022/06/25 08:40:34;;;;;;;16.65;3.35;;;14.50;99.90;;;;;;4971690;28;20623;-63
2022/06/25 08:42:59;;;;;;;14.50;3.08;;;14.40;99.90;;;;;;4971483;28;20263;-63
2022/06/25 08:45:25;;;;;;;12.63;3.87;;;14.50;99.90;;;;;;4971426;28;20184;-64
2022/06/25 08:47:52;;;;;;;16.50;2.73;;;14.70;99.90;;;;;;4971355;28;20180;-60
2022/06/25 08:50:22;;;;;;;15.13;2.30;;;14.90;99.90;;;;;;4969844;28;20230;-61
2022/06/25 08:52:55;;;;;;;12.20;2.58;;;14.70;99.90;;;;;;4971548;28;20199;-61
2022/06/25 08:55:39;;;;;;;5.47;1.70;;;15.30;99.90;;;;;;4971029;28;20175;-66
2022/06/25 08:58:11;;;;;;;7.00;1.95;;;15.50;99.90;;;;;;4953174;28;20218;-65
2022/06/25 09:00:40;;;;;;;6.82;1.77;;;15.60;99.90;;;;;;4971013;28;20183;-67
2022/06/25 09:03:08;;;;;;;10.27;1.92;;;15.70;99.90;;;;;;4971563;28;20172;-66
2022/06/25 09:06:22;;;;;;;13.70;1.80;;;16.40;99.90;;;;;;4970382;28;20266;-65
2022/06/25 09:12:13;;;;;;;9.15;2.13;;;16.50;99.90;;;;;;4954475;28;20675;-65
2022/06/25 09:14:39;;;;;;;7.88;1.55;;;16.30;99.90;;;;;;4966901;28;20175;-65
2022/06/25 09:17:14;;;;;;;6.32;1.65;;;16.00;99.90;;;;;;4972642;28;20302;-65
2022/06/25 09:19:41;;;;;;;9.75;2.15;;;16.00;99.90;;;;;;4972689;28;20221;-68
2022/06/25 09:22:22;;;;;;;8.45;2.15;;;16.10;99.90;;;;;;4972314;28;20658;-67
2022/06/25 09:24:50;;;;;;;16.20;2.63;;;17.20;99.90;;;;;;4971416;28;20176;-67
2022/06/25 09:27:40;;;;;;;14.02;2.28;;;17.80;99.90;;;;;;4973316;28;20182;-66
2022/06/25 09:30:14;;;;;;;6.65;1.70;;;17.10;99.90;;;;;;4972438;28;20226;-66
2022/06/25 09:32:55;;;;;;;11.80;2.22;;;17.10;99.90;;;;;;4972867;28;20403;-66
2022/06/25 09:35:38;;;;;;;6.68;1.80;;;16.60;99.90;;;;;;4972806;28;20198;-65
2022/06/25 09:38:07;;;;;;;16.23;2.40;;;16.90;99.90;;;;;;4973046;28;20200;-66
2022/06/25 09:40:34;;;;;;;8.15;2.20;;;16.80;99.90;;;;;;4972832;28;20172;-65
2022/06/25 09:43:13;;;;;;;13.70;2.58;;;16.80;99.90;;;;;;4972434;28;20179;-66
2022/06/25 09:45:41;;;;;;;10.02;2.20;;;16.60;99.90;;;;;;4972993;28;20286;-66
2022/06/25 09:48:20;;;;;;;12.07;2.00;;;15.70;99.90;;;;;;4972670;28;20582;-64
2022/06/25 09:51:12;;;;;;;9.80;2.80;;;15.30;99.90;;;;;;4972698;28;20187;-65
2022/06/25 09:53:52;;;;;;;11.90;2.28;;;15.00;99.90;;;;;;4972086;28;20634;-64
2022/06/25 09:56:29;;;;;;;11.35;1.67;;;14.90;99.90;;;;;;4972045;28;20650;-64
2022/06/25 09:58:56;;;;;;;8.30;1.80;;;14.40;99.90;;;;;;4972765;28;20273;-64
2022/06/25 10:01:25;;;;;;;11.20;2.07;;;14.80;99.90;;;;;;4972292;28;20207;-64
2022/06/25 10:03:51;;;;;;;10.73;2.03;;;15.00;99.90;;;;;;4955956;28;20176;-65
2022/06/25 10:06:19;;;;;;;11.35;2.28;;;15.40;99.90;;;;;;4928599;28;1283629;-64
2022/06/25 10:08:50;;;;;;;11.45;2.25;;;16.20;99.90;;;;;;4974047;28;20176;-64
2022/06/25 10:11:18;;;;;;;9.32;2.28;;;16.20;99.90;;;;;;4973699;28;20176;-64
2022/06/25 10:13:47;;;;;;;12.95;2.17;;;16.40;99.90;;;;;;4973930;28;20172;-65
2022/06/25 10:16:14;;;;;;;11.13;2.75;;;16.40;99.90;;;;;;4973525;28;20210;-64
2022/06/25 10:18:40;;;;;;;9.82;2.33;;;16.50;99.90;;;;;;4973460;28;20222;-65
2022/06/25 10:21:06;;;;;;;12.45;2.30;;;16.80;99.90;;;;;;4974102;28;20172;-65
2022/06/25 10:23:32;;;;;;;14.93;2.05;;;17.40;99.90;;;;;;4973837;28;20204;-65
2022/06/25 10:25:58;;;;;;;8.48;1.88;;;17.60;99.90;;;;;;4973699;28;20658;-67
2022/06/25 10:28:26;;;;;;;26.17;2.47;;;17.30;99.90;;;;;;4972296;28;20592;-65
2022/06/25 10:30:56;;;;;;;12.18;1.90;;;17.60;99.90;;;;;;4973380;28;20211;-65
2022/06/25 10:33:43;;;;;;;10.73;1.85;;;18.00;99.90;;;;;;4972762;28;20187;-66
2022/06/25 10:36:08;;;;;;;13.38;2.00;;;18.00;99.90;;;;;;4947958;28;20188;-66
2022/06/25 10:38:34;;;;;;;9.77;2.65;;;18.00;99.90;;;;;;4972851;28;20222;-65
2022/06/25 10:43:53;;;;;;;6.15;1.70;;;17.90;99.90;;;;;;4973331;28;20186;-65
2022/06/25 10:46:25;;;;;;;12.07;2.33;;;17.80;99.90;;;;;;4973201;28;20176;-67
2022/06/25 10:49:02;;;;;;;17.25;2.13;;;17.80;99.90;;;;;;4955633;28;20174;-66
2022/06/25 10:51:39;;;;;;;11.40;2.00;;;18.20;99.90;;;;;;4972467;28;20180;-67
2022/06/25 10:54:09;;;;;;;12.00;2.35;;;18.80;99.90;;;;;;4972637;28;20191;-67
2022/06/25 10:56:46;;;;;;;9.20;2.05;;;18.40;99.90;;;;;;4972411;28;20210;-66
2022/06/25 10:59:39;;;;;;;6.43;2.00;;;18.50;99.90;;;;;;4974001;28;20211;-65
2022/06/25 11:02:10;;;;;;;10.35;1.85;;;18.70;99.90;;;;;;4972805;28;20302;-65
2022/06/25 11:04:37;;;;;;;12.65;2.05;;;18.20;99.90;;;;;;4972955;28;20172;-66
2022/06/25 11:07:09;;;;;;;6.00;1.35;;;18.80;99.90;;;;;;4972715;28;20220;-66
2022/06/25 11:09:37;;;;;;;8.93;1.73;;;18.80;99.90;;;;;;4971099;28;20180;-68
2022/06/25 11:12:03;;;;;;;11.43;2.30;;;19.40;99.90;;;;;;4970746;28;20188;-66
2022/06/25 11:14:28;;;;;;;5.50;1.75;;;19.40;99.90;;;;;;4970186;28;20231;-67
2022/06/25 11:16:55;;;;;;;7.63;1.85;;;19.50;99.90;;;;;;4970815;28;20175;-66
2022/06/25 11:19:22;;;;;;;10.63;1.92;;;20.20;99.90;;;;;;4970586;28;20219;-66
2022/06/25 11:21:49;;;;;;;10.13;1.30;;;20.30;99.90;;;;;;4970838;28;20176;-66
2022/06/25 11:24:23;;;;;;;8.27;1.73;;;19.30;99.90;;;;;;4971659;28;20180;-66
2022/06/25 11:29:39;;;;;;;10.80;1.77;;;19.80;99.90;;;;;;4972927;28;20190;-67
2022/06/25 11:32:06;;;;;;;15.48;1.70;;;19.80;99.90;;;;;;4972328;28;20263;-66
2022/06/25 11:34:32;;;;;;;6.97;1.58;;;19.80;99.90;;;;;;4972531;28;20238;-66
2022/06/25 11:37:08;;;;;;;11.63;2.08;;;19.60;99.90;;;;;;4971109;28;20639;-67
2022/06/25 11:39:35;;;;;;;11.07;1.80;;;20.20;99.90;;;;;;4972548;28;20211;-66
2022/06/25 11:42:07;;;;;;;6.93;1.85;;;20.20;99.90;;;;;;4972597;28;20172;-66
2022/06/25 11:44:44;;;;;;;9.13;1.90;;;20.30;99.90;;;;;;4955107;28;20180;-67
2022/06/25 11:47:20;;;;;;;5.30;1.63;;;20.70;99.90;;;;;;4972481;28;20180;-67
2022/06/25 11:49:46;;;;;;;10.48;1.92;;;20.60;99.90;;;;;;4972309;28;20182;-67
2022/06/25 11:52:14;;;;;;;8.55;1.70;;;19.90;99.90;;;;;;4972387;28;20182;-66
2022/06/25 11:54:41;;;;;;;5.18;1.27;;;19.40;99.90;;;;;;4972286;28;20175;-65
2022/06/25 11:57:38;;;;;;;10.88;1.77;;;19.40;99.90;;;;;;4972081;28;20167;-66
2022/06/25 12:00:07;;;;;;;11.13;1.45;;;19.20;99.90;;;;;;4971914;28;20385;-67
2022/06/25 12:02:33;;;;;;;10.10;2.08;;;18.90;99.90;;;;;;4970621;28;20266;-65
2022/06/25 12:05:02;;;;;;;8.65;2.20;;;19.50;99.90;;;;;;4972005;28;20260;-67
2022/06/25 12:07:31;;;;;;;7.38;1.98;;;19.40;99.90;;;;;;4972064;28;20184;-64
2022/06/25 12:10:10;;;;;;;7.28;1.63;;;19.30;99.90;;;;;;4971963;28;20650;-64
2022/06/25 12:12:40;;;;;;;8.55;1.85;;;19.30;99.90;;;;;;4971814;28;20179;-68
2022/06/25 12:15:07;;;;;;;5.25;1.58;;;19.80;99.90;;;;;;4971712;28;20197;-65
2022/06/25 12:17:37;;;;;;;10.55;1.85;;;19.60;99.90;;;;;;4972027;28;20239;-65
2022/06/25 12:20:07;;;;;;;8.00;1.77;;;19.40;99.90;;;;;;4972290;28;20266;-68
2022/06/25 12:22:40;;;;;;;7.32;1.77;;;20.30;99.90;;;;;;4971868;28;20195;-68
2022/06/25 12:25:06;;;;;;;6.03;1.60;;;19.80;99.90;;;;;;4954617;28;20211;-67
2022/06/25 12:27:44;;;;;;;5.47;1.27;;;19.80;99.90;;;;;;4972255;28;20160;-68
2022/06/25 12:30:10;;;;;;;6.13;1.30;;;19.90;99.90;;;;;;4971879;28;20175;-67
2022/06/25 12:32:41;;;;;;;7.50;1.73;;;20.00;99.90;;;;;;4970462;28;20230;-68
2022/06/25 12:35:17;;;;;;;5.97;1.50;;;20.60;99.90;;;;;;4971568;28;20172;-67
2022/06/25 12:37:57;;;;;;;6.57;1.40;;;20.30;99.90;;;;;;4971615;28;20163;-65
2022/06/25 12:40:23;;;;;;;7.72;1.23;;;20.40;99.90;;;;;;4967046;28;20176;-64
2022/06/25 12:42:57;;;;;;;5.68;1.30;;;20.60;99.90;;;;;;4971924;28;20206;-64
2022/06/25 12:45:23;;;;;;;7.72;1.70;;;21.00;99.90;;;;;;4964415;28;20184;-66
2022/06/25 12:47:49;;;;;;;9.75;1.90;;;21.10;99.90;;;;;;4974856;28;20678;-64
2022/06/25 12:50:31;;;;;;;8.35;1.33;;;21.60;99.90;;;;;;4974791;28;20183;-66
2022/06/25 12:53:10;;;;;;;5.38;1.38;;;21.00;99.90;;;;;;4975213;28;20357;-65
2022/06/25 12:55:37;;;;;;;4.45;1.10;;;20.30;99.90;;;;;;4974888;28;20658;-66
2022/06/25 12:58:14;;;;;;;7.00;1.33;;;19.90;99.90;;;;;;4975139;28;20250;-67
2022/06/25 13:00:43;;;;;;;5.05;1.30;;;20.40;99.90;;;;;;4975094;28;20168;-65
2022/06/25 13:03:09;;;;;;;5.35;1.25;;;20.40;99.90;;;;;;4975323;28;20188;-66
2022/06/25 13:05:36;;;;;;;3.85;1.38;;;20.90;99.90;;;;;;4975058;28;20716;-67
2022/06/25 13:08:03;;;;;;;6.03;1.52;;;21.00;99.90;;;;;;4975436;28;20184;-67